Accueil
METAR-TAF:

METAR-TAF

Aéroports :

Aéroport international de Tunis-Carthage

Tunis, Tunisie

latitude: 36-50N, longitude: 010-14E, altitude: 3 m

Observation

Le bulletin a été fait il y a 41 minutes, à 07:00 UTC
Vent 6 kt de ouest
Température 14°C
Humidité 88%
Pression 1019 hPa
Visibilité 10 km ou plus
Nuages épars à une hauteur de 2600 ft, Cumulus congestus.

METAR: DTTA 300700Z 27006KT 9999 SCT026TCU 14/12 Q1019

Heure: 08:41 (07:41 UTC)

Prévision

Le bulletin a été fait il y a 2 heures et 41 minutes, à 05:00 UTC
Prévision valable du 30 à 06 UTC au 01 à 06 UTC
Vent 5 kt de ouest
Visibilité 10 km ou plus
Nuages épars à une hauteur de 2300 ft
Probabilité 30% :
Temporairement
du 02 à 02 UTC au 02 à 06 UTC
Visibilité: 4000 m
Quelques nuages à une hauteur de 1000 ft
brume

TAF: DTTA 300500Z 3006/0106 27005KT 9999 SCT023 PROB30 TEMPO 0202/0206 4000 BR FEW010

Observations et prévisions météorologiques de plus de 4000 aéroports (messages METAR et TAF).

Les stations disponibles sont représentées par des disques jaunes et rouges sur la carte.

Passer la souris dessus pour voir le nom de la station.

Cliquer dessus pour voir les observations et prévisions météorologiques.

Pour changer de carte: cliquez sur les boutons verts avec une croix noire pour zoomer, sur le bouton vert avec un tiret pour effectuer un zoom arrière, ou sur les flèches vertes pour les cartes adjacentes.


METAR-TAF: